createdAt,value
2023-04-03T00:00:41.417Z,9.50
2023-04-03T00:03:09.039Z,8.80
2023-04-03T00:05:36.253Z,8.80
2023-04-03T00:08:03.645Z,8.00
2023-04-03T00:10:30.275Z,8.52
2023-04-03T00:12:57.694Z,8.30
2023-04-03T00:15:24.409Z,8.93
2023-04-03T00:17:51.687Z,8.90
2023-04-03T00:20:18.573Z,8.23
2023-04-03T00:22:46.184Z,9.25
2023-04-03T00:25:12.851Z,9.15
2023-04-03T00:27:40.581Z,9.70
2023-04-03T00:30:10.767Z,8.98
2023-04-03T00:32:38.084Z,8.85
2023-04-03T00:35:05.140Z,9.20
2023-04-03T00:37:32.488Z,9.75
2023-04-03T00:39:59.143Z,10.02
2023-04-03T00:42:26.604Z,10.18
2023-04-03T00:45:01.498Z,11.18
2023-04-03T00:47:29.381Z,9.65
2023-04-03T00:49:56.477Z,10.23
2023-04-03T00:52:29.188Z,9.98
2023-04-03T00:55:02.020Z,10.48
2023-04-03T00:57:31.912Z,9.98
2023-04-03T01:00:03.943Z,9.85
2023-04-03T01:02:31.407Z,10.32
2023-04-03T01:04:58.719Z,10.63
2023-04-03T01:07:30.659Z,9.30
2023-04-03T01:10:00.649Z,10.00
2023-04-03T01:12:32.251Z,9.68
2023-04-03T01:15:02.692Z,9.93
2023-04-03T01:17:43.636Z,9.10
2023-04-03T01:20:32.594Z,9.15
2023-04-03T01:23:12.251Z,11.30
2023-04-03T01:25:44.248Z,12.55
2023-04-03T01:28:14.811Z,12.80
2023-04-03T01:31:03.903Z,13.30
2023-04-03T01:33:33.784Z,11.10
2023-04-03T01:36:01.265Z,10.35
2023-04-03T01:38:28.691Z,10.65
2023-04-03T01:40:55.642Z,10.73
2023-04-03T01:43:23.132Z,10.10
2023-04-03T01:45:55.263Z,10.73
2023-04-03T01:48:23.065Z,11.75
2023-04-03T01:50:49.669Z,11.43
2023-04-03T01:53:17.009Z,12.27
2023-04-03T01:55:43.986Z,11.85
2023-04-03T01:58:11.319Z,11.48
2023-04-03T02:00:38.343Z,11.70
2023-04-03T02:03:05.951Z,12.63
2023-04-03T02:05:32.679Z,12.93
2023-04-03T02:07:59.922Z,11.80
2023-04-03T02:10:26.709Z,12.50
2023-04-03T02:12:54.145Z,12.90
2023-04-03T02:15:20.899Z,11.93
2023-04-03T02:17:48.577Z,11.43
2023-04-03T02:20:15.421Z,10.80
2023-04-03T02:22:42.946Z,10.18
2023-04-03T02:25:10.513Z,9.57
2023-04-03T02:27:38.054Z,10.55
2023-04-03T02:30:06.105Z,10.88
2023-04-03T02:32:33.685Z,10.60
2023-04-03T02:35:00.574Z,10.88
2023-04-03T02:37:28.266Z,10.60
2023-04-03T02:39:56.114Z,10.80
2023-04-03T02:42:23.454Z,10.55
2023-04-03T02:44:51.914Z,10.23
2023-04-03T02:47:19.396Z,10.02
2023-04-03T02:49:46.808Z,9.82
2023-04-03T02:52:15.109Z,9.23
2023-04-03T02:54:41.993Z,9.95
2023-04-03T02:57:11.363Z,10.02
2023-04-03T02:59:41.436Z,10.13
2023-04-03T03:02:10.843Z,9.90
2023-04-03T03:04:38.411Z,9.65
2023-04-03T03:07:05.431Z,9.95
2023-04-03T03:09:33.144Z,9.50
2023-04-03T03:11:59.853Z,9.48
2023-04-03T03:14:27.210Z,8.90
2023-04-03T03:16:53.940Z,8.90
2023-04-03T03:19:21.476Z,9.13
2023-04-03T03:21:48.324Z,9.13
2023-04-03T03:24:17.003Z,8.55
2023-04-03T03:26:43.902Z,7.90
2023-04-03T03:29:11.134Z,9.35
2023-04-03T03:31:37.901Z,8.05
2023-04-03T03:34:05.199Z,8.52
2023-04-03T03:36:32.564Z,8.55
2023-04-03T03:38:59.862Z,9.32
2023-04-03T03:41:26.515Z,10.15
2023-04-03T03:43:53.896Z,8.70
2023-04-03T03:46:21.086Z,8.85
2023-04-03T03:48:48.384Z,9.10
2023-04-03T03:51:16.146Z,8.98
2023-04-03T03:53:43.675Z,7.97
2023-04-03T03:56:14.459Z,8.02
2023-04-03T03:58:42.618Z,7.68
2023-04-03T04:01:09.409Z,7.30
2023-04-03T04:06:12.987Z,7.45
2023-04-03T04:08:40.895Z,9.90
2023-04-03T04:11:10.566Z,6.40
2023-04-03T04:13:38.924Z,6.55
2023-04-03T04:16:06.846Z,5.95
2023-04-03T04:18:35.139Z,6.88
2023-04-03T04:21:02.080Z,7.22
2023-04-03T04:23:29.893Z,7.28
2023-04-03T04:25:58.576Z,6.72
2023-04-03T04:28:26.900Z,6.43
2023-04-03T04:30:55.844Z,6.75
2023-04-03T04:33:26.744Z,6.00
2023-04-03T04:35:54.002Z,6.82
2023-04-03T04:38:22.500Z,9.45
2023-04-03T04:40:51.737Z,11.43
2023-04-03T04:43:19.509Z,9.75
2023-04-03T04:45:49.281Z,8.50
2023-04-03T04:48:19.801Z,6.97
2023-04-03T04:50:46.937Z,6.75
2023-04-03T04:53:14.267Z,6.45
2023-04-03T04:55:42.528Z,6.30
2023-04-03T04:58:10.115Z,5.95
2023-04-03T05:00:36.900Z,5.35
2023-04-03T05:03:04.336Z,5.70
2023-04-03T05:05:31.718Z,5.75
2023-04-03T05:07:59.154Z,5.85
2023-04-03T05:10:26.198Z,6.75
2023-04-03T05:12:53.830Z,5.40
2023-04-03T05:15:20.844Z,5.05
2023-04-03T05:17:48.524Z,5.30
2023-04-03T05:20:16.064Z,5.35
2023-04-03T05:22:45.656Z,4.80
2023-04-03T05:25:12.905Z,5.18
2023-04-03T05:27:43.368Z,5.13
2023-04-03T05:30:11.333Z,5.18
2023-04-03T05:32:41.264Z,4.10
2023-04-03T05:35:17.564Z,5.05
2023-04-03T05:37:47.459Z,4.35
2023-04-03T05:40:18.162Z,4.63
2023-04-03T05:42:48.228Z,4.72
2023-04-03T05:45:16.282Z,5.38
2023-04-03T05:47:43.762Z,4.93
2023-04-03T05:50:10.854Z,4.68
2023-04-03T05:52:41.420Z,4.63
2023-04-03T05:55:08.756Z,5.05
2023-04-03T05:57:37.335Z,4.22
2023-04-03T06:00:13.554Z,4.32
2023-04-03T06:05:19.748Z,3.85
2023-04-03T06:07:47.303Z,3.45
2023-04-03T06:10:14.139Z,4.03
2023-04-03T06:12:41.514Z,3.88
2023-04-03T06:15:10.825Z,5.57
2023-04-03T06:17:38.907Z,5.03
2023-04-03T06:20:06.127Z,6.00
2023-04-03T06:22:34.086Z,5.25
2023-04-03T06:25:02.386Z,4.55
2023-04-03T06:27:29.644Z,4.53
2023-04-03T06:29:56.380Z,4.80
2023-04-03T06:32:23.642Z,4.90
2023-04-03T06:34:50.278Z,4.25
2023-04-03T06:37:19.825Z,5.00
2023-04-03T06:39:46.554Z,4.45
2023-04-03T06:42:14.473Z,4.35
2023-04-03T06:44:49.229Z,4.60
2023-04-03T06:47:17.556Z,4.63
2023-04-03T06:49:45.185Z,4.82
2023-04-03T06:52:15.861Z,4.35
2023-04-03T06:54:42.584Z,4.03
2023-04-03T06:57:10.115Z,4.18
2023-04-03T06:59:37.364Z,3.60
2023-04-03T07:02:05.250Z,4.25
2023-04-03T07:04:32.334Z,4.25
2023-04-03T07:06:59.600Z,4.28
2023-04-03T07:09:26.909Z,5.35
2023-04-03T07:11:54.441Z,4.78
2023-04-03T07:14:22.148Z,4.53
2023-04-03T07:16:49.786Z,5.35
2023-04-03T07:19:16.512Z,6.93
2023-04-03T07:21:44.593Z,6.05
2023-04-03T07:24:15.083Z,5.75
2023-04-03T07:26:43.927Z,5.75
2023-04-03T07:29:13.255Z,5.53
2023-04-03T07:31:42.782Z,5.57
2023-04-03T07:34:09.479Z,5.93
2023-04-03T07:36:37.310Z,6.20
2023-04-03T07:39:04.537Z,7.70
2023-04-03T07:41:32.328Z,7.15
2023-04-03T07:43:59.169Z,5.95
2023-04-03T07:46:27.325Z,6.20
2023-04-03T07:48:54.235Z,6.72
2023-04-03T07:51:22.107Z,5.80
2023-04-03T07:53:49.466Z,5.20
2023-04-03T07:56:18.288Z,5.18
2023-04-03T07:58:44.990Z,6.22
2023-04-03T08:01:12.244Z,4.85
2023-04-03T08:03:40.516Z,4.00
2023-04-03T08:06:11.944Z,4.28
2023-04-03T08:08:38.864Z,4.05
2023-04-03T08:11:07.263Z,5.78
2023-04-03T08:13:34.894Z,4.43
2023-04-03T08:16:12.907Z,5.03
2023-04-03T08:18:39.990Z,5.30
2023-04-03T08:21:08.677Z,4.85
2023-04-03T08:23:35.301Z,4.95
2023-04-03T08:26:10.652Z,5.13
2023-04-03T08:28:37.365Z,3.53
2023-04-03T08:31:12.204Z,3.33
2023-04-03T08:33:40.544Z,4.05
2023-04-03T08:36:16.888Z,3.78
2023-04-03T08:38:43.592Z,3.55
2023-04-03T08:41:37.114Z,3.47
2023-04-03T08:44:08.993Z,3.35
2023-04-03T08:46:48.526Z,3.45
2023-04-03T08:49:30.835Z,2.70
2023-04-03T08:52:01.839Z,2.78
2023-04-03T08:54:35.552Z,2.45
2023-04-03T08:57:06.782Z,2.22
2023-04-03T08:59:38.120Z,2.72
2023-04-03T09:02:41.091Z,2.45
2023-04-03T09:05:18.564Z,2.40
2023-04-03T09:08:19.681Z,2.72
2023-04-03T09:10:46.880Z,3.22
2023-04-03T09:13:19.709Z,2.38
2023-04-03T09:15:47.016Z,2.53
2023-04-03T09:18:17.436Z,2.95
2023-04-03T09:21:05.900Z,2.95
2023-04-03T09:24:09.927Z,2.28
2023-04-03T09:26:44.797Z,2.65
2023-04-03T09:29:22.525Z,2.50
2023-04-03T09:31:56.943Z,2.17
2023-04-03T09:34:37.635Z,1.45
2023-04-03T09:37:07.023Z,1.73
2023-04-03T09:39:51.309Z,2.05
2023-04-03T09:42:24.214Z,1.88
2023-04-03T09:44:57.689Z,2.00
2023-04-03T09:47:29.055Z,1.77
2023-04-03T09:50:15.248Z,1.70
2023-04-03T09:52:47.602Z,2.03
2023-04-03T09:55:32.729Z,1.77
2023-04-03T09:58:05.035Z,1.45
2023-04-03T10:00:39.117Z,1.70
2023-04-03T10:03:23.494Z,1.75
2023-04-03T10:05:52.697Z,1.25
2023-04-03T10:08:19.278Z,0.80
2023-04-03T10:11:19.889Z,1.08
2023-04-03T10:14:01.184Z,1.42
2023-04-03T10:16:43.130Z,1.40
2023-04-03T10:19:24.341Z,1.13
2023-04-03T10:21:56.866Z,1.35
2023-04-03T10:24:55.844Z,1.30
2023-04-03T10:27:41.864Z,1.25
2023-04-03T10:30:46.457Z,1.30
2023-04-03T10:33:40.974Z,1.30
2023-04-03T10:36:12.895Z,1.40
2023-04-03T10:38:56.404Z,1.20
2023-04-03T10:41:31.117Z,1.33
2023-04-03T10:44:16.978Z,1.55
2023-04-03T10:47:03.018Z,1.65
2023-04-03T10:49:59.414Z,1.50
2023-04-03T10:52:53.881Z,1.08
2023-04-03T10:55:27.626Z,1.60
2023-04-03T10:57:59.372Z,1.10
2023-04-03T11:00:40.971Z,1.42
2023-04-03T11:03:26.114Z,1.60
2023-04-03T11:05:56.305Z,1.52
2023-04-03T11:08:40.364Z,1.40
2023-04-03T11:11:12.751Z,1.95
2023-04-03T11:14:00.117Z,1.70
2023-04-03T11:16:43.483Z,1.88
2023-04-03T11:19:34.977Z,2.20
2023-04-03T11:22:12.970Z,2.42
2023-04-03T11:24:43.584Z,3.30
2023-04-03T11:27:19.545Z,2.10
2023-04-03T11:29:48.209Z,2.30
2023-04-03T11:32:49.743Z,1.75
2023-04-03T11:35:18.230Z,1.48
2023-04-03T11:37:54.791Z,1.63
2023-04-03T11:40:34.807Z,1.80
2023-04-03T11:43:01.490Z,1.83
2023-04-03T11:45:50.961Z,2.42
2023-04-03T11:48:29.596Z,1.50
2023-04-03T11:50:57.645Z,1.70
2023-04-03T11:53:31.013Z,1.75
2023-04-03T11:56:01.089Z,1.83
2023-04-03T11:58:30.208Z,1.50
2023-04-03T12:01:03.852Z,1.80
2023-04-03T12:03:32.796Z,2.22
2023-04-03T12:06:06.761Z,2.55
2023-04-03T12:08:42.719Z,2.42
2023-04-03T12:11:10.034Z,1.70
2023-04-03T12:13:50.223Z,2.22
2023-04-03T12:16:29.706Z,1.65
2023-04-03T12:19:03.539Z,2.17
2023-04-03T12:21:30.810Z,1.98
2023-04-03T12:24:04.664Z,1.55
2023-04-03T12:26:46.006Z,1.90
2023-04-03T12:29:33.385Z,2.03
2023-04-03T12:32:19.288Z,1.85
2023-04-03T12:35:22.606Z,1.88
2023-04-03T12:38:17.584Z,2.00
2023-04-03T12:41:22.540Z,1.90
2023-04-03T12:43:49.126Z,1.55
2023-04-03T12:46:20.083Z,1.73
2023-04-03T12:48:52.124Z,1.48
2023-04-03T12:51:36.405Z,2.17
2023-04-03T12:54:13.949Z,2.17
2023-04-03T12:56:41.130Z,2.80
2023-04-03T12:59:27.611Z,2.03
2023-04-03T13:01:57.250Z,2.83
2023-04-03T13:04:24.695Z,2.33
2023-04-03T13:06:52.162Z,2.40
2023-04-03T13:09:32.394Z,1.58
2023-04-03T13:12:12.791Z,1.88
2023-04-03T13:14:42.073Z,2.20
2023-04-03T13:17:15.706Z,1.63
2023-04-03T13:19:43.816Z,1.60
2023-04-03T13:22:33.492Z,2.15
2023-04-03T13:25:06.426Z,2.50
2023-04-03T13:27:33.484Z,1.60
2023-04-03T13:30:03.179Z,1.88
2023-04-03T13:32:31.544Z,2.17
2023-04-03T13:35:08.231Z,1.90
2023-04-03T13:37:59.382Z,1.90
2023-04-03T13:40:30.233Z,1.77
2023-04-03T13:43:05.885Z,2.15
2023-04-03T13:45:36.009Z,2.03
2023-04-03T13:51:01.983Z,2.70
2023-04-03T13:53:31.349Z,2.05
2023-04-03T13:56:03.758Z,1.95
2023-04-03T13:58:32.727Z,2.10
2023-04-03T14:01:14.824Z,1.73
2023-04-03T14:03:52.574Z,2.05
2023-04-03T14:06:19.498Z,2.50
2023-04-03T14:08:47.388Z,2.25
2023-04-03T14:11:18.463Z,1.90
2023-04-03T14:13:47.636Z,2.60
2023-04-03T14:16:17.538Z,2.72
2023-04-03T14:18:49.521Z,2.45
2023-04-03T14:21:19.039Z,2.20
2023-04-03T14:23:47.315Z,2.45
2023-04-03T14:26:25.227Z,1.90
2023-04-03T14:28:55.501Z,2.25
2023-04-03T14:31:23.367Z,2.22
2023-04-03T14:33:51.009Z,2.20
2023-04-03T14:36:22.046Z,1.90
2023-04-03T14:38:50.939Z,1.90
2023-04-03T14:41:21.338Z,2.10
2023-04-03T14:43:49.308Z,1.70
2023-04-03T14:46:35.179Z,2.17
2023-04-03T14:49:22.035Z,1.92
2023-04-03T14:51:48.774Z,1.90
2023-04-03T14:54:20.133Z,1.70
2023-04-03T14:56:47.328Z,1.83
2023-04-03T14:59:16.647Z,2.05
2023-04-03T15:01:43.427Z,2.10
2023-04-03T15:04:16.273Z,1.58
2023-04-03T15:06:43.949Z,1.98
2023-04-03T15:09:26.637Z,2.20
2023-04-03T15:11:54.774Z,1.98
2023-04-03T15:14:35.862Z,1.92
2023-04-03T15:17:06.215Z,2.13
2023-04-03T15:19:38.473Z,2.45
2023-04-03T15:22:05.454Z,1.77
2023-04-03T15:24:32.456Z,2.08
2023-04-03T15:27:00.784Z,1.90
2023-04-03T15:29:28.674Z,2.05
2023-04-03T15:31:55.667Z,2.15
2023-04-03T15:34:23.320Z,1.90
2023-04-03T15:36:53.369Z,2.15
2023-04-03T15:39:21.400Z,1.75
2023-04-03T15:41:48.336Z,1.80
2023-04-03T15:44:18.799Z,2.30
2023-04-03T15:46:47.114Z,1.85
2023-04-03T15:49:14.382Z,2.03
2023-04-03T15:51:41.416Z,1.70
2023-04-03T15:54:08.361Z,1.75
2023-04-03T15:56:35.273Z,2.00
2023-04-03T15:59:01.965Z,3.17
2023-04-03T16:01:29.088Z,2.15
2023-04-03T16:03:57.097Z,1.90
2023-04-03T16:06:25.664Z,1.90
2023-04-03T16:08:55.433Z,2.20
2023-04-03T16:11:22.397Z,1.75
2023-04-03T16:13:48.996Z,1.65
2023-04-03T16:16:16.382Z,2.20
2023-04-03T16:18:43.367Z,2.33
2023-04-03T16:21:10.657Z,1.50
2023-04-03T16:23:37.289Z,2.17
2023-04-03T16:26:04.301Z,1.65
2023-04-03T16:28:31.296Z,1.73
2023-04-03T16:30:58.538Z,2.33
2023-04-03T16:33:26.115Z,2.40
2023-04-03T16:35:52.974Z,2.47
2023-04-03T16:38:20.834Z,2.63
2023-04-03T16:40:47.447Z,2.35
2023-04-03T16:43:14.673Z,2.55
2023-04-03T16:45:41.603Z,1.60
2023-04-03T16:48:08.866Z,1.92
2023-04-03T16:50:35.727Z,2.30
2023-04-03T16:53:03.813Z,1.77
2023-04-03T16:55:30.935Z,2.70
2023-04-03T16:57:57.716Z,2.08
2023-04-03T17:00:24.341Z,2.45
2023-04-03T17:02:51.672Z,3.63
2023-04-03T17:05:18.385Z,3.65
2023-04-03T17:07:45.856Z,2.60
2023-04-03T17:10:13.809Z,2.42
2023-04-03T17:12:41.160Z,2.70
2023-04-03T17:15:08.252Z,2.60
2023-04-03T17:17:36.621Z,1.90
2023-04-03T17:20:04.155Z,2.00
2023-04-03T17:22:33.227Z,2.25
2023-04-03T17:24:59.867Z,2.42
2023-04-03T17:27:27.432Z,2.40
2023-04-03T17:29:54.102Z,1.77
2023-04-03T17:32:21.394Z,1.85
2023-04-03T17:34:48.196Z,2.03
2023-04-03T17:37:15.759Z,2.35
2023-04-03T17:39:42.547Z,2.00
2023-04-03T17:42:09.939Z,2.17
2023-04-03T17:44:36.584Z,2.08
2023-04-03T17:47:03.939Z,2.10
2023-04-03T17:49:30.783Z,1.83
2023-04-03T17:51:58.126Z,1.83
2023-04-03T17:54:24.854Z,2.20
2023-04-03T17:56:52.080Z,2.15
2023-04-03T17:59:19.001Z,1.83
2023-04-03T18:01:47.792Z,2.10
2023-04-03T18:04:15.022Z,1.95
2023-04-03T18:06:46.391Z,2.00
2023-04-03T18:09:26.342Z,2.28
2023-04-03T18:11:54.754Z,2.53
2023-04-03T18:14:25.435Z,2.35
2023-04-03T18:16:52.848Z,2.20
2023-04-03T18:19:22.913Z,2.20
2023-04-03T18:21:58.535Z,2.15
2023-04-03T18:24:26.935Z,2.80
2023-04-03T18:26:58.735Z,2.53
2023-04-03T18:29:25.881Z,2.17
2023-04-03T18:31:55.809Z,2.97
2023-04-03T18:34:22.627Z,2.17
2023-04-03T18:36:50.024Z,2.22
2023-04-03T18:39:16.641Z,2.63
2023-04-03T18:41:44.573Z,3.13
2023-04-03T18:44:14.259Z,2.70
2023-04-03T18:46:41.626Z,2.35
2023-04-03T18:49:09.807Z,2.50
2023-04-03T18:51:39.432Z,2.40
2023-04-03T18:54:09.423Z,2.55
2023-04-03T18:56:37.414Z,2.47
2023-04-03T18:59:04.525Z,2.13
2023-04-03T19:01:32.607Z,2.10
2023-04-03T19:03:59.337Z,2.63
2023-04-03T19:06:26.994Z,2.20
2023-04-03T19:08:53.702Z,2.28
2023-04-03T19:11:21.159Z,2.03
2023-04-03T19:14:04.505Z,2.15
2023-04-03T19:16:35.512Z,1.73
2023-04-03T19:19:02.278Z,1.80
2023-04-03T19:21:29.537Z,2.17
2023-04-03T19:23:58.955Z,2.05
2023-04-03T19:26:29.520Z,2.47
2023-04-03T19:28:56.424Z,1.95
2023-04-03T19:31:23.513Z,1.98
2023-04-03T19:33:50.711Z,2.30
2023-04-03T19:36:18.731Z,2.45
2023-04-03T19:38:45.409Z,3.55
2023-04-03T19:41:19.391Z,3.13
2023-04-03T19:43:48.000Z,2.92
2023-04-03T19:46:14.814Z,2.40
2023-04-03T19:48:41.453Z,4.18
2023-04-03T19:51:09.029Z,4.47
2023-04-03T19:53:35.829Z,2.55
2023-04-03T19:56:03.359Z,2.08
2023-04-03T19:58:30.226Z,2.42
2023-04-03T20:00:58.200Z,1.83
2023-04-03T20:03:25.967Z,2.25
2023-04-03T20:05:53.356Z,2.35
2023-04-03T20:08:20.426Z,2.47
2023-04-03T20:10:48.135Z,2.03
2023-04-03T20:13:15.209Z,2.53
2023-04-03T20:15:44.668Z,2.80
2023-04-03T20:18:19.948Z,2.80
2023-04-03T20:20:56.964Z,2.17
2023-04-03T20:23:24.776Z,2.83
2023-04-03T20:26:02.090Z,2.08
2023-04-03T20:28:36.226Z,2.08
2023-04-03T20:31:04.056Z,3.05
2023-04-03T20:33:30.824Z,1.85
2023-04-03T20:35:58.605Z,2.47
2023-04-03T20:38:25.816Z,2.25
2023-04-03T20:40:52.616Z,2.40
2023-04-03T20:43:21.529Z,2.75
2023-04-03T20:45:49.652Z,2.55
2023-04-03T20:48:17.848Z,2.22
2023-04-03T20:50:46.865Z,2.10
2023-04-03T20:53:14.630Z,2.20
2023-04-03T20:55:42.472Z,2.33
2023-04-03T20:58:09.493Z,2.25
2023-04-03T21:00:37.760Z,2.50
2023-04-03T21:03:05.727Z,1.83
2023-04-03T21:05:35.330Z,2.72
2023-04-03T21:08:40.244Z,2.30
2023-04-03T21:11:44.518Z,1.70
2023-04-03T21:14:49.260Z,2.55
2023-04-03T21:17:16.224Z,2.33
2023-04-03T21:19:46.385Z,2.50
2023-04-03T21:22:14.579Z,2.20
2023-04-03T21:24:42.826Z,2.67
2023-04-03T21:27:09.456Z,2.13
2023-04-03T21:29:36.691Z,2.55
2023-04-03T21:32:03.413Z,2.42
2023-04-03T21:34:31.578Z,2.10
2023-04-03T21:37:03.396Z,1.95
2023-04-03T21:39:30.874Z,2.40
2023-04-03T21:41:57.642Z,2.25
2023-04-03T21:44:27.843Z,2.72
2023-04-03T21:46:54.655Z,2.75
2023-04-03T21:49:22.862Z,2.95
2023-04-03T21:51:51.235Z,2.75
2023-04-03T21:54:18.881Z,3.40
2023-04-03T21:56:47.690Z,3.70
2023-04-03T21:59:15.322Z,3.65
2023-04-03T22:01:42.141Z,3.25
2023-04-03T22:04:09.481Z,3.53
2023-04-03T22:06:37.506Z,3.92
2023-04-03T22:09:04.841Z,3.53
2023-04-03T22:11:31.548Z,3.88
2023-04-03T22:13:58.828Z,3.47
2023-04-03T22:16:26.496Z,3.33
2023-04-03T22:18:53.953Z,3.63
2023-04-03T22:21:21.267Z,3.55
2023-04-03T22:23:48.507Z,3.45
2023-04-03T22:26:15.482Z,3.45
2023-04-03T22:28:45.415Z,2.78
2023-04-03T22:31:16.209Z,3.58
2023-04-03T22:33:45.302Z,2.70
2023-04-03T22:36:13.618Z,3.35
2023-04-03T22:38:44.402Z,3.10
2023-04-03T22:41:11.659Z,2.78
2023-04-03T22:43:39.798Z,2.08
2023-04-03T22:46:08.800Z,2.33
2023-04-03T22:48:37.368Z,1.75
2023-04-03T22:51:07.197Z,2.28
2023-04-03T22:53:35.043Z,2.03
2023-04-03T22:56:03.549Z,2.63
2023-04-03T22:58:31.494Z,2.20
2023-04-03T23:01:05.797Z,2.17
2023-04-03T23:03:36.899Z,2.35
2023-04-03T23:06:04.616Z,2.28
2023-04-03T23:08:35.692Z,2.50
2023-04-03T23:11:02.532Z,2.20
2023-04-03T23:13:30.173Z,2.50
2023-04-03T23:15:58.325Z,2.38
2023-04-03T23:18:27.004Z,3.10
2023-04-03T23:20:54.655Z,2.60
2023-04-03T23:23:23.852Z,3.50
2023-04-03T23:25:58.899Z,5.20
2023-04-03T23:28:27.479Z,5.15
2023-04-03T23:31:02.722Z,6.40
2023-04-03T23:33:32.026Z,6.30
2023-04-03T23:36:00.099Z,5.63
2023-04-03T23:38:27.446Z,4.35
2023-04-03T23:40:54.070Z,4.00
2023-04-03T23:43:21.331Z,3.90
2023-04-03T23:45:48.000Z,3.58
2023-04-03T23:48:15.497Z,3.63
2023-04-03T23:50:43.504Z,3.40
2023-04-03T23:53:13.103Z,2.85
2023-04-03T23:55:39.998Z,2.75
2023-04-03T23:58:07.212Z,3.38
